Carter, Montana
Current Conditions -  °F | °C
As of 10:56 PM on Friday 28 Nov 2014 (Local Time) from KGFA Reporting Station
Light Snow Light Snow  
Wind Chill: -16°   Ceiling: 1400
Heat Index:   Visibility: 9mi
Dew Point: -4°   Wind: 10mph
Humidity: 81%   Direction: 310°NW
Pressure: 29.65"   Gusts: NA
Location:  47.78°N, 110.96°W
Report Text: KGFA 290556Z AUTO 31009KT 9SM -SN OVC014 M17/M20 A2965 RMK AO2 SLP079 T11751201 11099 21176 52017
Loading
Personal Weather Stations






























Interactive Weather Map New forecast layout! Learn more

10-Day Weather Forecast

Advertisements
Track Severe Weather on mobile